Flight Track Log - Related Links

Times and Time Zones

All times are in EDT time to prevent confusion due to time zone crossing. See the UAL4380 flight status page for this flight to view local times or setup timezone preferences in your user account.

Time Position Orientation Groundspeed Altitude Reporting Facility
EDT Latitude Longitude Course Direction KTS MPH feet Rate Location/Type
Fri 10:31:30 AM 35.8986 -78.7792 39° Northeast 164 189 1,100  Level Washington Center
Fri 10:32:09 AM 35.9328 -78.7575 27° Northeast 185 213 2,500 1,980 Climbing Washington Center
Fri 10:33:10 AM 35.9833 -78.7339 21° North 216 249 4,400 1,983 Climbing Washington Center
Fri 10:34:10 AM 36.0508 -78.7108 15° North 231 266 6,500 2,288 Climbing Washington Center
Fri 10:35:00 AM 36.1559 -78.5408 11° North  Level Estimated
Fri 10:35:08 AM 36.1203 -78.6881 15° North 243 280 8,900  Level Washington Center
Fri 10:36:00 AM 36.2253 -78.4789 39° Northeast  Level Estimated
Fri 10:36:09 AM 36.1939 -78.6625 16° North 255 293 10,500  Level Washington Center
Fri 10:37:09 AM 36.2717 -78.6397 13° North 293 337 11,100 1,140 Climbing Washington Center
Fri 10:38:10 AM 36.3686 -78.6075 15° North 324 373 12,800 1,438 Climbing Washington Center
Fri 10:39:10 AM 36.4653 -78.5750 15° North 340 391 14,000 1,271 Climbing Washington Center
Fri 10:40:08 AM 36.5600 -78.5425 15° North 340 391 15,300 1,271 Climbing Washington Center
Fri 10:41:08 AM 36.6547 -78.5097 16° North 345 397 16,500 992 Climbing Washington Center
Fri 10:42:09 AM 36.7517 -78.4667 20° North 345 397 17,300 744 Climbing Washington Center
Fri 10:43:09 AM 36.8389 -78.4000 31° Northeast 351 404 18,000 793 Climbing Washington Center
Fri 10:44:10 AM 36.9239 -78.3250 35° Northeast 362 417 18,900 843 Climbing Washington Center
Fri 10:45:10 AM 37.0089 -78.2606 31° Northeast 379 436 19,700 900 Climbing Washington Center
Fri 10:46:10 AM 37.1108 -78.1781 33° Northeast 385 443 20,700 915 Climbing Washington Center
Fri 10:47:08 AM 37.2022 -78.1003 34° Northeast 385 443 21,500 1,008 Climbing Washington Center
Fri 10:48:09 AM 37.2933 -78.0250 33° Northeast 385 443 22,700 984 Climbing Washington Center
Fri 10:49:10 AM 37.3867 -77.9469 34° Northeast 390 449 23,500 857 Climbing Washington Center
Fri 10:50:08 AM 37.4800 -77.8686 34° Northeast 395 455 24,400 1,017 Climbing Washington Center
Fri 10:51:08 AM 37.5756 -77.7878 34° Northeast 401 461 25,500 1,190 Climbing Washington Center
Fri 10:52:09 AM 37.6667 -77.7064 35° Northeast 406 467 26,800 744 Climbing Washington Center
Fri 10:53:09 AM 37.7600 -77.6197 36° Northeast 406 467 27,000 99 Climbing Washington Center
Fri 10:54:10 AM 37.8594 -77.5275 36° Northeast 411 473 27,000  Level Washington Center
Fri 10:55:08 AM 37.9608 -77.4353 36° Northeast 432 497 27,000  Level Washington Center
Fri 10:56:08 AM 38.0625 -77.3456 35° Northeast 439 505 27,000  Level Washington Center
Fri 10:57:09 AM 38.1661 -77.2475 37° Northeast 451 519 27,000  Level Washington Center
Fri 10:58:10 AM 38.2736 -77.1469 36° Northeast 463 533 27,000  Level Washington Center
Fri 10:59:08 AM 38.3750 -77.0536 36° Northeast 463 533 27,000  Level Washington Center
Fri 11:00:09 AM 38.4761 -76.9628 35° Northeast 452 520 27,000  Level Washington Center
Fri 11:01:10 AM 38.5542 -76.8872 37° Northeast 447 514 27,000  Level Washington Center
Fri 11:02:07 AM 38.6636 -76.7856 36° Northeast 442 509 27,000  Level Washington Center
Fri 11:03:09 AM 38.7561 -76.6858 40° Northeast 442 509 27,000  Level Washington Center
Fri 11:04:09 AM 38.8489 -76.5806 41° Northeast 442 509 27,000  Level Washington Center
Fri 11:05:10 AM 38.9414 -76.4750 42° Northeast 437 503 27,000  Level Washington Center
Fri 11:06:10 AM 39.0358 -76.3639 42° Northeast 442 509 27,000  Level Washington Center
Fri 11:07:10 AM 39.1303 -76.2497 43° Northeast 447 514 27,000  Level Washington Center
Fri 11:08:08 AM 39.2311 -76.1408 40° Northeast 457 526 27,000  Level Washington Center
Fri 11:09:10 AM 39.3253 -76.0317 42° Northeast 457 526 27,000  Level Washington Center
Fri 11:10:10 AM 39.4214 -75.9167 43° Northeast 462 532 27,000 -308 Level Washington Center
Fri 11:11:07 AM 39.5156 -75.8042 43° Northeast 462 532 26,400 -1,322 Descending Washington Center
Fri 11:12:08 AM 39.6094 -75.6939 42° Northeast 462 532 24,400 -2,132 Descending Washington Center
Fri 11:13:08 AM 39.7011 -75.5808 43° Northeast 457 526 22,100 -2,331 Descending Washington Center
Fri 11:14:09 AM 39.7864 -75.4781 43° Northeast 438 504 19,700 -2,281 Descending Washington Center
Fri 11:15:09 AM 39.8675 -75.3833 42° Northeast 409 471 17,500 -2,430 Descending Washington Center
Fri 11:16:10 AM 39.9464 -75.2856 44° Northeast 390 449 14,800 -2,529 Descending Washington Center
Fri 11:17:10 AM 40.0211 -75.1958 43° Northeast 375 432 12,400 -1,932 Descending Washington Center
Fri 11:18:08 AM 40.1000 -75.1006 43° Northeast 362 417 11,000 -1,117 Descending Washington Center
Fri 11:19:35 AM 40.1833 -74.9833 47° Northeast 280 322 9,700 -1,102 Descending New York TRACON
Fri 11:20:35 AM 40.2500 -74.9167 37° Northeast 269 310 8,300 -895 Descending New York TRACON
Fri 11:21:29 AM 40.2833 -74.8667 49° Northeast 262 302 8,000 -158 Descending New York TRACON
Fri 11:22:29 AM 40.3333 -74.7833 52° Northeast 265 305 8,000 -50 Level New York TRACON
Fri 11:23:29 AM 40.3833 -74.7167 45° Northeast 267 307 7,900 -678 Descending New York TRACON
Fri 11:24:24 AM 40.4000 -74.6333 75° East 269 310 6,700 -1,250 Descending New York TRACON
Fri 11:25:29 AM 40.4167 -74.5167 79° East 270 311 5,400 -850 Descending New York TRACON
Fri 11:26:24 AM 40.4167 -74.4500 90° East 251 289 5,000 -626 Descending New York TRACON
Fri 11:27:24 AM 40.4000 -74.3833 108° East 201 231 4,200 -950 Descending New York TRACON
Fri 11:28:24 AM 40.4333 -74.3333 49° Northeast 190 219 3,100 -600 Descending New York TRACON
Fri 11:29:24 AM 40.4667 -74.3000 37° Northeast 181 208 3,000 -50 Descending New York TRACON
Fri 11:30:24 AM 40.5167 -74.2833 14° North 182 209 3,000 -200 Level New York TRACON
Fri 11:31:24 AM 40.5667 -74.2500 27° Northeast 180 207 2,600 -650 Descending New York TRACON
Fri 11:32:24 AM 40.6167 -74.2167 27° Northeast 178 205 1,700 -900 Descending New York TRACON
Fri 11:33:24 AM 40.6500 -74.2000 21° North 126 145 800 -900 Descending New York TRACON

Login

Don't have an account? Register now (free) for customized features, flight alerts, and more!